sensor_id;sensor_type;location;lat;lon;timestamp;pressure;altitude;pressure_sealevel;temperature;humidity
32324;BME280;25666;44.350;9.222;2022-12-26T00:01:36;102605.25;;;15.49;100.00
32324;BME280;25666;44.350;9.222;2022-12-26T00:04:03;102604.88;;;15.51;100.00
32324;BME280;25666;44.350;9.222;2022-12-26T00:06:29;102593.66;;;15.51;100.00
32324;BME280;25666;44.350;9.222;2022-12-26T00:08:56;102600.09;;;15.51;100.00
32324;BME280;25666;44.350;9.222;2022-12-26T00:11:23;102602.38;;;15.58;100.00
32324;BME280;25666;44.350;9.222;2022-12-26T00:13:58;102601.22;;;15.59;100.00
32324;BME280;25666;44.350;9.222;2022-12-26T00:16:24;102606.50;;;15.61;100.00
32324;BME280;25666;44.350;9.222;2022-12-26T00:18:51;102601.69;;;15.61;100.00
32324;BME280;25666;44.350;9.222;2022-12-26T00:21:17;102605.66;;;15.60;100.00
32324;BME280;25666;44.350;9.222;2022-12-26T00:23:44;102604.03;;;15.59;100.00
32324;BME280;25666;44.350;9.222;2022-12-26T00:26:16;102607.66;;;15.60;100.00
32324;BME280;25666;44.350;9.222;2022-12-26T00:28:42;102603.53;;;15.57;100.00
32324;BME280;25666;44.350;9.222;2022-12-26T00:31:13;102608.00;;;15.58;100.00
32324;BME280;25666;44.350;9.222;2022-12-26T00:33:39;102611.28;;;15.60;100.00
32324;BME280;25666;44.350;9.222;2022-12-26T00:36:11;102618.06;;;15.59;100.00
32324;BME280;25666;44.350;9.222;2022-12-26T00:38:42;102625.66;;;15.59;100.00
32324;BME280;25666;44.350;9.222;2022-12-26T00:41:33;102624.63;;;15.63;100.00
32324;BME280;25666;44.350;9.222;2022-12-26T00:43:58;102626.00;;;15.57;100.00
32324;BME280;25666;44.350;9.222;2022-12-26T00:46:25;102619.03;;;15.63;100.00
32324;BME280;25666;44.350;9.222;2022-12-26T00:48:51;102620.19;;;15.62;100.00
32324;BME280;25666;44.350;9.222;2022-12-26T00:51:16;102629.31;;;15.59;100.00
32324;BME280;25666;44.350;9.222;2022-12-26T00:53:42;102615.94;;;15.56;100.00
32324;BME280;25666;44.350;9.222;2022-12-26T00:56:08;102616.56;;;15.62;100.00
32324;BME280;25666;44.350;9.222;2022-12-26T00:58:35;102626.34;;;15.56;100.00
32324;BME280;25666;44.350;9.222;2022-12-26T01:01:17;102627.50;;;15.54;100.00
32324;BME280;25666;44.350;9.222;2022-12-26T01:03:43;102626.34;;;15.56;100.00
32324;BME280;25666;44.350;9.222;2022-12-26T01:06:09;102612.63;;;15.54;100.00
32324;BME280;25666;44.350;9.222;2022-12-26T01:08:35;102619.91;;;15.55;100.00
32324;BME280;25666;44.350;9.222;2022-12-26T01:11:08;102630.44;;;15.58;100.00
32324;BME280;25666;44.350;9.222;2022-12-26T01:13:35;102628.16;;;15.51;100.00
32324;BME280;25666;44.350;9.222;2022-12-26T01:16:01;102627.03;;;15.52;100.00
32324;BME280;25666;44.350;9.222;2022-12-26T01:18:27;102624.53;;;15.51;100.00
32324;BME280;25666;44.350;9.222;2022-12-26T01:20:57;102628.13;;;15.60;100.00
32324;BME280;25666;44.350;9.222;2022-12-26T01:23:23;102629.16;;;15.56;100.00
32324;BME280;25666;44.350;9.222;2022-12-26T01:25:49;102634.91;;;15.59;100.00
32324;BME280;25666;44.350;9.222;2022-12-26T01:28:14;102642.50;;;15.59;100.00
32324;BME280;25666;44.350;9.222;2022-12-26T01:30:40;102634.97;;;15.50;100.00
32324;BME280;25666;44.350;9.222;2022-12-26T01:33:05;102645.00;;;15.51;100.00
32324;BME280;25666;44.350;9.222;2022-12-26T01:35:31;102645.00;;;15.51;100.00
32324;BME280;25666;44.350;9.222;2022-12-26T01:37:57;102645.84;;;15.52;100.00
32324;BME280;25666;44.350;9.222;2022-12-26T01:40:26;102639.56;;;15.46;100.00
32324;BME280;25666;44.350;9.222;2022-12-26T01:42:51;102639.75;;;15.50;100.00
32324;BME280;25666;44.350;9.222;2022-12-26T01:45:29;102639.41;;;15.51;100.00
32324;BME280;25666;44.350;9.222;2022-12-26T01:47:57;102629.00;;;15.52;100.00
32324;BME280;25666;44.350;9.222;2022-12-26T01:50:38;102624.69;;;15.54;100.00
32324;BME280;25666;44.350;9.222;2022-12-26T01:53:19;102627.84;;;15.53;100.00
32324;BME280;25666;44.350;9.222;2022-12-26T01:55:54;102625.88;;;15.53;100.00
32324;BME280;25666;44.350;9.222;2022-12-26T01:58:27;102633.09;;;15.54;100.00
32324;BME280;25666;44.350;9.222;2022-12-26T02:00:54;102626.81;;;15.58;100.00
32324;BME280;25666;44.350;9.222;2022-12-26T02:03:19;102633.72;;;15.60;100.00
32324;BME280;25666;44.350;9.222;2022-12-26T02:06:03;102632.59;;;15.61;100.00
32324;BME280;25666;44.350;9.222;2022-12-26T02:08:32;102629.91;;;15.65;100.00
32324;BME280;25666;44.350;9.222;2022-12-26T02:13:39;102622.19;;;15.62;100.00
32324;BME280;25666;44.350;9.222;2022-12-26T02:16:07;102621.88;;;15.54;100.00
32324;BME280;25666;44.350;9.222;2022-12-26T02:18:33;102618.25;;;15.54;100.00
32324;BME280;25666;44.350;9.222;2022-12-26T02:38:56;102613.63;;;15.58;100.00
32324;BME280;25666;44.350;9.222;2022-12-26T02:41:46;102614.28;;;15.55;100.00
32324;BME280;25666;44.350;9.222;2022-12-26T02:44:24;102607.84;;;15.54;100.00
32324;BME280;25666;44.350;9.222;2022-12-26T02:47:34;102608.81;;;15.59;100.00
32324;BME280;25666;44.350;9.222;2022-12-26T02:50:03;102609.50;;;15.56;100.00
32324;BME280;25666;44.350;9.222;2022-12-26T02:55:42;102604.75;;;15.47;100.00
32324;BME280;25666;44.350;9.222;2022-12-26T02:58:39;102606.56;;;15.52;100.00
32324;BME280;25666;44.350;9.222;2022-12-26T03:01:27;102605.53;;;15.57;100.00
32324;BME280;25666;44.350;9.222;2022-12-26T03:04:15;102608.69;;;15.55;100.00
32324;BME280;25666;44.350;9.222;2022-12-26T03:07:04;102611.16;;;15.57;100.00
32324;BME280;25666;44.350;9.222;2022-12-26T03:09:49;102603.53;;;15.57;100.00
32324;BME280;25666;44.350;9.222;2022-12-26T03:12:39;102609.03;;;15.53;100.00
32324;BME280;25666;44.350;9.222;2022-12-26T03:15:28;102601.91;;;15.56;100.00
32324;BME280;25666;44.350;9.222;2022-12-26T03:18:18;102607.53;;;15.56;100.00
32324;BME280;25666;44.350;9.222;2022-12-26T03:20:45;102606.56;;;15.52;100.00
32324;BME280;25666;44.350;9.222;2022-12-26T03:23:14;102598.47;;;15.50;100.00
32324;BME280;25666;44.350;9.222;2022-12-26T03:25:44;102591.69;;;15.51;100.00
32324;BME280;25666;44.350;9.222;2022-12-26T03:28:29;102600.28;;;15.46;100.00
32324;BME280;25666;44.350;9.222;2022-12-26T03:30:56;102607.69;;;15.51;100.00
32324;BME280;25666;44.350;9.222;2022-12-26T03:33:28;102595.31;;;15.52;100.00
32324;BME280;25666;44.350;9.222;2022-12-26T03:39:53;102602.00;;;15.30;100.00
32324;BME280;25666;44.350;9.222;2022-12-26T03:43:05;102605.66;;;15.31;100.00
32324;BME280;25666;44.350;9.222;2022-12-26T03:51:44;102592.97;;;15.25;100.00
32324;BME280;25666;44.350;9.222;2022-12-26T03:57:20;102593.28;;;15.23;100.00
32324;BME280;25666;44.350;9.222;2022-12-26T04:00:10;102588.19;;;15.25;100.00
32324;BME280;25666;44.350;9.222;2022-12-26T04:02:59;102588.50;;;15.24;100.00
32324;BME280;25666;44.350;9.222;2022-12-26T04:05:46;102588.72;;;15.19;100.00
32324;BME280;25666;44.350;9.222;2022-12-26T04:08:54;102599.09;;;15.18;100.00
32324;BME280;25666;44.350;9.222;2022-12-26T04:11:43;102601.53;;;15.28;100.00
32324;BME280;25666;44.350;9.222;2022-12-26T04:14:33;102607.25;;;15.32;100.00
32324;BME280;25666;44.350;9.222;2022-12-26T04:20:17;102593.81;;;15.17;100.00
32324;BME280;25666;44.350;9.222;2022-12-26T04:22:48;102587.72;;;15.15;100.00
32324;BME280;25666;44.350;9.222;2022-12-26T04:25:48;102590.69;;;15.18;100.00
32324;BME280;25666;44.350;9.222;2022-12-26T04:28:36;102584.09;;;15.14;100.00
32324;BME280;25666;44.350;9.222;2022-12-26T04:31:28;102590.84;;;15.22;100.00
32324;BME280;25666;44.350;9.222;2022-12-26T04:34:46;102584.41;;;15.21;100.00
32324;BME280;25666;44.350;9.222;2022-12-26T04:37:34;102585.91;;;15.19;100.00
32324;BME280;25666;44.350;9.222;2022-12-26T04:40:23;102594.47;;;15.22;100.00
32324;BME280;25666;44.350;9.222;2022-12-26T04:43:09;102589.13;;;15.29;100.00
32324;BME280;25666;44.350;9.222;2022-12-26T04:45:55;102585.84;;;15.27;100.00
32324;BME280;25666;44.350;9.222;2022-12-26T04:48:20;102598.84;;;15.32;100.00
32324;BME280;25666;44.350;9.222;2022-12-26T04:51:04;102592.75;;;15.30;100.00
32324;BME280;25666;44.350;9.222;2022-12-26T04:53:30;102590.31;;;15.28;100.00
32324;BME280;25666;44.350;9.222;2022-12-26T04:55:55;102573.94;;;15.30;100.00
32324;BME280;25666;44.350;9.222;2022-12-26T04:58:21;102586.19;;;15.26;100.00
32324;BME280;25666;44.350;9.222;2022-12-26T05:00:49;102584.69;;;15.28;100.00
32324;BME280;25666;44.350;9.222;2022-12-26T05:03:14;102581.22;;;15.31;100.00
32324;BME280;25666;44.350;9.222;2022-12-26T05:05:59;102592.25;;;15.36;100.00
32324;BME280;25666;44.350;9.222;2022-12-26T05:08:44;102587.16;;;15.30;100.00
32324;BME280;25666;44.350;9.222;2022-12-26T05:11:31;102590.78;;;15.30;100.00
32324;BME280;25666;44.350;9.222;2022-12-26T05:13:58;102595.94;;;15.28;100.00
32324;BME280;25666;44.350;9.222;2022-12-26T05:16:25;102599.53;;;15.29;100.00
32324;BME280;25666;44.350;9.222;2022-12-26T05:19:11;102600.09;;;15.22;100.00
32324;BME280;25666;44.350;9.222;2022-12-26T05:21:55;102610.47;;;15.22;100.00
32324;BME280;25666;44.350;9.222;2022-12-26T05:24:40;102612.44;;;15.21;100.00
32324;BME280;25666;44.350;9.222;2022-12-26T05:27:35;102605.19;;;15.20;100.00
32324;BME280;25666;44.350;9.222;2022-12-26T05:30:20;102599.25;;;15.22;100.00
32324;BME280;25666;44.350;9.222;2022-12-26T05:32:46;102604.66;;;15.27;100.00
32324;BME280;25666;44.350;9.222;2022-12-26T05:35:31;102614.91;;;15.23;100.00
32324;BME280;25666;44.350;9.222;2022-12-26T05:37:56;102618.06;;;15.21;100.00
32324;BME280;25666;44.350;9.222;2022-12-26T05:40:22;102608.50;;;15.22;100.00
32324;BME280;25666;44.350;9.222;2022-12-26T05:42:47;102616.25;;;15.17;100.00
32324;BME280;25666;44.350;9.222;2022-12-26T05:45:13;102613.59;;;15.20;100.00
32324;BME280;25666;44.350;9.222;2022-12-26T05:47:38;102608.81;;;15.21;100.00
32324;BME280;25666;44.350;9.222;2022-12-26T05:50:04;102615.94;;;15.18;100.00
32324;BME280;25666;44.350;9.222;2022-12-26T05:52:30;102615.09;;;15.18;100.00
32324;BME280;25666;44.350;9.222;2022-12-26T05:54:55;102622.69;;;15.17;100.00
32324;BME280;25666;44.350;9.222;2022-12-26T05:57:21;102617.06;;;15.17;100.00
32324;BME280;25666;44.350;9.222;2022-12-26T05:59:46;102620.88;;;15.21;100.00
32324;BME280;25666;44.350;9.222;2022-12-26T06:02:12;102615.94;;;15.18;100.00
32324;BME280;25666;44.350;9.222;2022-12-26T06:04:37;102620.03;;;15.21;100.00
32324;BME280;25666;44.350;9.222;2022-12-26T06:07:03;102615.25;;;15.21;100.00
32324;BME280;25666;44.350;9.222;2022-12-26T06:09:28;102613.44;;;15.17;100.00
32324;BME280;25666;44.350;9.222;2022-12-26T06:11:54;102622.69;;;15.17;100.00
32324;BME280;25666;44.350;9.222;2022-12-26T06:14:19;102621.53;;;15.18;100.00
32324;BME280;25666;44.350;9.222;2022-12-26T06:16:45;102633.59;;;15.19;100.00
32324;BME280;25666;44.350;9.222;2022-12-26T06:19:10;102624.34;;;15.18;100.00
32324;BME280;25666;44.350;9.222;2022-12-26T06:21:36;102625.97;;;15.19;100.00
32324;BME280;25666;44.350;9.222;2022-12-26T06:24:01;102622.69;;;15.17;100.00
32324;BME280;25666;44.350;9.222;2022-12-26T06:26:27;102612.78;;;15.20;100.00
32324;BME280;25666;44.350;9.222;2022-12-26T06:28:52;102622.22;;;15.15;100.00
32324;BME280;25666;44.350;9.222;2022-12-26T06:31:21;102624.19;;;15.15;100.00
32324;BME280;25666;44.350;9.222;2022-12-26T06:33:54;102617.13;;;15.09;100.00
32324;BME280;25666;44.350;9.222;2022-12-26T06:36:22;102613.44;;;15.17;100.00
32324;BME280;25666;44.350;9.222;2022-12-26T06:38:48;102609.69;;;15.13;100.00
32324;BME280;25666;44.350;9.222;2022-12-26T06:41:17;102626.47;;;15.21;100.00
32324;BME280;25666;44.350;9.222;2022-12-26T06:43:43;102629.97;;;15.18;100.00
32324;BME280;25666;44.350;9.222;2022-12-26T06:46:12;102633.75;;;15.22;100.00
32324;BME280;25666;44.350;9.222;2022-12-26T06:48:38;102638.38;;;15.18;100.00
32324;BME280;25666;44.350;9.222;2022-12-26T06:51:05;102634.69;;;15.26;100.00
32324;BME280;25666;44.350;9.222;2022-12-26T06:53:38;102624.50;;;15.22;100.00
32324;BME280;25666;44.350;9.222;2022-12-26T06:56:12;102629.28;;;15.21;100.00
32324;BME280;25666;44.350;9.222;2022-12-26T06:58:39;102618.06;;;15.21;100.00
32324;BME280;25666;44.350;9.222;2022-12-26T07:01:10;102615.41;;;15.25;100.00
32324;BME280;25666;44.350;9.222;2022-12-26T07:03:36;102622.84;;;15.21;100.00
32324;BME280;25666;44.350;9.222;2022-12-26T07:06:19;102620.50;;;15.23;100.00
32324;BME280;25666;44.350;9.222;2022-12-26T07:08:46;102624.31;;;15.27;100.00
32324;BME280;25666;44.350;9.222;2022-12-26T07:16:37;102626.28;;;15.26;100.00
32324;BME280;25666;44.350;9.222;2022-12-26T07:19:04;102632.88;;;15.30;100.00
32324;BME280;25666;44.350;9.222;2022-12-26T07:21:30;102639.47;;;15.26;100.00
32324;BME280;25666;44.350;9.222;2022-12-26T07:23:55;102638.81;;;15.29;100.00
32324;BME280;25666;44.350;9.222;2022-12-26T07:26:22;102638.97;;;15.32;100.00
32324;BME280;25666;44.350;9.222;2022-12-26T07:28:52;102646.91;;;15.30;100.00
32324;BME280;25666;44.350;9.222;2022-12-26T07:31:19;102649.03;;;15.33;100.00
32324;BME280;25666;44.350;9.222;2022-12-26T07:33:53;102644.41;;;15.29;100.00
32324;BME280;25666;44.350;9.222;2022-12-26T07:36:19;102638.97;;;15.32;100.00
32324;BME280;25666;44.350;9.222;2022-12-26T07:38:45;102644.41;;;15.29;100.00
32324;BME280;25666;44.350;9.222;2022-12-26T07:41:11;102649.72;;;15.30;100.00
32324;BME280;25666;44.350;9.222;2022-12-26T07:43:55;102646.91;;;15.30;100.00
32324;BME280;25666;44.350;9.222;2022-12-26T07:46:21;102637.47;;;15.35;100.00
32324;BME280;25666;44.350;9.222;2022-12-26T07:48:46;102640.78;;;15.37;100.00
32324;BME280;25666;44.350;9.222;2022-12-26T07:51:12;102645.03;;;15.43;100.00
32324;BME280;25666;44.350;9.222;2022-12-26T07:53:38;102643.38;;;15.42;100.00
32324;BME280;25666;44.350;9.222;2022-12-26T07:56:03;102642.75;;;15.36;100.00
32324;BME280;25666;44.350;9.222;2022-12-26T07:58:29;102644.06;;;15.39;100.00
32324;BME280;25666;44.350;9.222;2022-12-26T08:00:55;102646.84;;;15.39;100.00
32324;BME280;25666;44.350;9.222;2022-12-26T08:03:20;102643.38;;;15.42;100.00
32324;BME280;25666;44.350;9.222;2022-12-26T08:05:47;102645.69;;;15.48;100.00
32324;BME280;25666;44.350;9.222;2022-12-26T08:08:14;102645.00;;;15.51;100.00
32324;BME280;25666;44.350;9.222;2022-12-26T08:10:40;102661.69;;;15.57;100.00
32324;BME280;25666;44.350;9.222;2022-12-26T08:13:06;102660.34;;;15.54;100.00
32324;BME280;25666;44.350;9.222;2022-12-26T08:15:31;102663.47;;;15.61;100.00
32324;BME280;25666;44.350;9.222;2022-12-26T08:17:57;102665.97;;;15.54;100.00
32324;BME280;25666;44.350;9.222;2022-12-26T08:20:22;102663.59;;;15.65;100.00
32324;BME280;25666;44.350;9.222;2022-12-26T08:22:48;102676.00;;;15.64;100.00
32324;BME280;25666;44.350;9.222;2022-12-26T08:25:14;102667.78;;;15.59;100.00
32324;BME280;25666;44.350;9.222;2022-12-26T08:27:40;102669.94;;;15.53;100.00
32324;BME280;25666;44.350;9.222;2022-12-26T08:30:06;102664.59;;;15.60;100.00
32324;BME280;25666;44.350;9.222;2022-12-26T08:32:32;102669.06;;;15.61;100.00
32324;BME280;25666;44.350;9.222;2022-12-26T08:34:57;102678.66;;;15.60;100.00
32324;BME280;25666;44.350;9.222;2022-12-26T08:37:23;102680.31;;;15.61;100.00
32324;BME280;25666;44.350;9.222;2022-12-26T09:10:09;102703.44;;;15.58;100.00
32324;BME280;25666;44.350;9.222;2022-12-26T09:12:34;102694.72;;;15.51;100.00
32324;BME280;25666;44.350;9.222;2022-12-26T09:15:00;102702.13;;;15.56;100.00
32324;BME280;25666;44.350;9.222;2022-12-26T09:17:25;102707.94;;;15.50;100.00
32324;BME280;25666;44.350;9.222;2022-12-26T09:19:52;102702.13;;;15.47;100.00
32324;BME280;25666;44.350;9.222;2022-12-26T09:22:18;102701.16;;;15.51;100.00
32324;BME280;25666;44.350;9.222;2022-12-26T09:25:02;102701.66;;;15.53;100.00
32324;BME280;25666;44.350;9.222;2022-12-26T09:27:28;102706.25;;;15.58;100.00
32324;BME280;25666;44.350;9.222;2022-12-26T09:29:53;102707.38;;;15.57;100.00
32324;BME280;25666;44.350;9.222;2022-12-26T09:32:19;102708.56;;;15.56;100.00
32324;BME280;25666;44.350;9.222;2022-12-26T09:34:53;102717.16;;;15.51;100.00
32324;BME280;25666;44.350;9.222;2022-12-26T09:37:19;102714.34;;;15.51;100.00
32324;BME280;25666;44.350;9.222;2022-12-26T09:39:44;102718.97;;;15.47;100.00
32324;BME280;25666;44.350;9.222;2022-12-26T09:42:53;102718.81;;;15.52;100.00
32324;BME280;25666;44.350;9.222;2022-12-26T09:48:30;102713.41;;;15.76;100.00
32324;BME280;25666;44.350;9.222;2022-12-26T09:51:02;102709.09;;;15.79;100.00
32324;BME280;25666;44.350;9.222;2022-12-26T09:53:34;102721.00;;;15.76;100.00
32324;BME280;25666;44.350;9.222;2022-12-26T09:56:27;102717.09;;;15.68;100.00
32324;BME280;25666;44.350;9.222;2022-12-26T09:58:57;102720.06;;;15.63;100.00
32324;BME280;25666;44.350;9.222;2022-12-26T10:01:27;102724.22;;;15.57;100.00
32324;BME280;25666;44.350;9.222;2022-12-26T10:03:56;102717.31;;;15.54;100.00
32324;BME280;25666;44.350;9.222;2022-12-26T10:06:39;102730.34;;;15.59;100.00
32324;BME280;25666;44.350;9.222;2022-12-26T10:09:32;102732.84;;;15.52;100.00
32324;BME280;25666;44.350;9.222;2022-12-26T10:20:24;102736.47;;;15.52;100.00
32324;BME280;25666;44.350;9.222;2022-12-26T10:23:21;102730.41;;;15.50;100.00
32324;BME280;25666;44.350;9.222;2022-12-26T10:25:56;102736.50;;;15.44;100.00
32324;BME280;25666;44.350;9.222;2022-12-26T10:28:33;102740.28;;;15.48;100.00
32324;BME280;25666;44.350;9.222;2022-12-26T10:34:07;102743.41;;;15.46;100.00
32324;BME280;25666;44.350;9.222;2022-12-26T10:36:41;102729.88;;;15.48;100.00
32324;BME280;25666;44.350;9.222;2022-12-26T10:39:24;102733.19;;;15.50;100.00
32324;BME280;25666;44.350;9.222;2022-12-26T10:41:53;102732.03;;;15.51;100.00
32324;BME280;25666;44.350;9.222;2022-12-26T10:44:19;102739.44;;;15.47;100.00
32324;BME280;25666;44.350;9.222;2022-12-26T10:49:20;102730.06;;;15.43;100.00
32324;BME280;25666;44.350;9.222;2022-12-26T10:51:48;102736.31;;;15.49;100.00
32324;BME280;25666;44.350;9.222;2022-12-26T10:54:16;102735.19;;;15.50;100.00
32324;BME280;25666;44.350;9.222;2022-12-26T10:56:44;102737.47;;;15.48;100.00
32324;BME280;25666;44.350;9.222;2022-12-26T10:59:29;102737.28;;;15.44;100.00
32324;BME280;25666;44.350;9.222;2022-12-26T11:02:12;102741.22;;;15.61;100.00
32324;BME280;25666;44.350;9.222;2022-12-26T11:04:38;102731.03;;;15.56;100.00
32324;BME280;25666;44.350;9.222;2022-12-26T11:07:18;102727.22;;;15.52;100.00
32324;BME280;25666;44.350;9.222;2022-12-26T11:09:44;102723.25;;;15.44;100.00
32324;BME280;25666;44.350;9.222;2022-12-26T11:12:33;102719.97;;;15.51;100.00
32324;BME280;25666;44.350;9.222;2022-12-26T11:15:05;102717.00;;;15.56;100.00
32324;BME280;25666;44.350;9.222;2022-12-26T11:17:43;102710.41;;;15.52;100.00
32324;BME280;25666;44.350;9.222;2022-12-26T11:22:34;102691.22;;;15.45;100.00
32324;BME280;25666;44.350;9.222;2022-12-26T11:27:43;102682.00;;;15.45;100.00
32324;BME280;25666;44.350;9.222;2022-12-26T11:30:20;102674.53;;;15.58;100.00
32324;BME280;25666;44.350;9.222;2022-12-26T11:33:01;102672.22;;;15.60;100.00
32324;BME280;25666;44.350;9.222;2022-12-26T11:35:27;102671.56;;;15.63;100.00
32324;BME280;25666;44.350;9.222;2022-12-26T11:38:00;102672.03;;;15.65;100.00
32324;BME280;25666;44.350;9.222;2022-12-26T11:40:33;102668.91;;;15.58;100.00
32324;BME280;25666;44.350;9.222;2022-12-26T11:43:02;102672.25;;;15.51;100.00
32324;BME280;25666;44.350;9.222;2022-12-26T11:45:30;102658.06;;;15.47;100.00
32324;BME280;25666;44.350;9.222;2022-12-26T11:47:58;102654.09;;;15.48;100.00
32324;BME280;25666;44.350;9.222;2022-12-26T11:50:28;102650.16;;;15.49;100.00
32324;BME280;25666;44.350;9.222;2022-12-26T12:00:43;102653.59;;;15.46;100.00
32324;BME280;25666;44.350;9.222;2022-12-26T12:03:44;102643.22;;;15.47;100.00
32324;BME280;25666;44.350;9.222;2022-12-26T12:12:13;102640.31;;;15.64;100.00
32324;BME280;25666;44.350;9.222;2022-12-26T12:20:39;102633.41;;;15.62;100.00
32324;BME280;25666;44.350;9.222;2022-12-26T12:26:09;102627.31;;;15.60;100.00
32324;BME280;25666;44.350;9.222;2022-12-26T12:31:49;102608.34;;;15.57;100.00
32324;BME280;25666;44.350;9.222;2022-12-26T12:43:10;102597.13;;;15.57;100.00
32324;BME280;25666;44.350;9.222;2022-12-26T12:45:50;102601.38;;;15.63;100.00
32324;BME280;25666;44.350;9.222;2022-12-26T12:48:29;102611.09;;;15.65;100.00
32324;BME280;25666;44.350;9.222;2022-12-26T12:51:08;102604.66;;;15.65;100.00
32324;BME280;25666;44.350;9.222;2022-12-26T12:56:35;102608.53;;;15.81;100.00
32324;BME280;25666;44.350;9.222;2022-12-26T13:02:34;102592.28;;;15.86;100.00
32324;BME280;25666;44.350;9.222;2022-12-26T13:07:39;102599.47;;;15.75;100.00
32324;BME280;25666;44.350;9.222;2022-12-26T13:10:21;102604.88;;;15.80;100.00
32324;BME280;25666;44.350;9.222;2022-12-26T13:12:49;102609.13;;;15.86;100.00
32324;BME280;25666;44.350;9.222;2022-12-26T13:18:02;102604.34;;;15.87;100.00
32324;BME280;25666;44.350;9.222;2022-12-26T13:20:39;102608.44;;;15.89;100.00
32324;BME280;25666;44.350;9.222;2022-12-26T13:23:21;102617.13;;;15.76;100.00
32324;BME280;25666;44.350;9.222;2022-12-26T13:26:13;102605.34;;;15.82;100.00
32324;BME280;25666;44.350;9.222;2022-12-26T13:31:20;102604.88;;;15.80;100.00
32324;BME280;25666;44.350;9.222;2022-12-26T13:33:46;102615.50;;;15.75;100.00
32324;BME280;25666;44.350;9.222;2022-12-26T13:36:33;102623.63;;;15.68;100.00
32324;BME280;25666;44.350;9.222;2022-12-26T13:41:28;102609.97;;;15.58;100.00
32324;BME280;25666;44.350;9.222;2022-12-26T13:49:39;102607.53;;;15.56;100.00
32324;BME280;25666;44.350;9.222;2022-12-26T14:00:12;102618.22;;;15.63;100.00
32324;BME280;25666;44.350;9.222;2022-12-26T14:06:36;102624.47;;;15.68;100.00
32324;BME280;25666;44.350;9.222;2022-12-26T14:09:18;102622.19;;;15.62;100.00
32324;BME280;25666;44.350;9.222;2022-12-26T14:50:55;102617.53;;;15.66;100.00
32324;BME280;25666;44.350;9.222;2022-12-26T14:56:37;102624.78;;;15.67;100.00
32324;BME280;25666;44.350;9.222;2022-12-26T15:05:01;102625.19;;;15.57;100.00
32324;BME280;25666;44.350;9.222;2022-12-26T15:08:07;102629.16;;;15.56;100.00
32324;BME280;25666;44.350;9.222;2022-12-26T15:11:07;102628.00;;;15.57;100.00
32324;BME280;25666;44.350;9.222;2022-12-26T15:22:24;102613.63;;;15.58;100.00
32324;BME280;25666;44.350;9.222;2022-12-26T15:25:30;102621.41;;;15.52;100.00
32324;BME280;25666;44.350;9.222;2022-12-26T15:45:45;102610.59;;;15.63;100.00
32324;BME280;25666;44.350;9.222;2022-12-26T15:48:29;102624.38;;;15.56;100.00
32324;BME280;25666;44.350;9.222;2022-12-26T15:57:04;102607.53;;;15.56;100.00
32324;BME280;25666;44.350;9.222;2022-12-26T16:04:57;102614.13;;;15.51;100.00
32324;BME280;25666;44.350;9.222;2022-12-26T16:07:36;102613.13;;;15.56;100.00
32324;BME280;25666;44.350;9.222;2022-12-26T16:10:34;102620.53;;;15.61;100.00
32324;BME280;25666;44.350;9.222;2022-12-26T16:16:04;102620.72;;;15.56;100.00
32324;BME280;25666;44.350;9.222;2022-12-26T16:18:31;102621.88;;;15.54;100.00
32324;BME280;25666;44.350;9.222;2022-12-26T16:23:40;102622.72;;;15.55;100.00
32324;BME280;25666;44.350;9.222;2022-12-26T16:26:16;102627.50;;;15.54;100.00
32324;BME280;25666;44.350;9.222;2022-12-26T16:28:42;102624.84;;;15.58;100.00
32324;BME280;25666;44.350;9.222;2022-12-26T16:31:11;102632.59;;;15.61;100.00
32324;BME280;25666;44.350;9.222;2022-12-26T16:33:42;102624.16;;;15.61;100.00
32324;BME280;25666;44.350;9.222;2022-12-26T16:36:10;102628.13;;;15.60;100.00
32324;BME280;25666;44.350;9.222;2022-12-26T16:38:38;102632.94;;;15.60;100.00
32324;BME280;25666;44.350;9.222;2022-12-26T16:41:17;102625.47;;;15.64;100.00
32324;BME280;25666;44.350;9.222;2022-12-26T16:43:44;102626.63;;;15.63;100.00
32324;BME280;25666;44.350;9.222;2022-12-26T16:49:00;102632.59;;;15.61;100.00
32324;BME280;25666;44.350;9.222;2022-12-26T17:03:33;102612.06;;;15.69;100.00
32324;BME280;25666;44.350;9.222;2022-12-26T17:06:05;102615.06;;;15.64;100.00
32324;BME280;25666;44.350;9.222;2022-12-26T17:08:31;102608.09;;;15.70;100.00
32324;BME280;25666;44.350;9.222;2022-12-26T17:10:56;102615.19;;;15.68;100.00
32324;BME280;25666;44.350;9.222;2022-12-26T17:13:24;102611.56;;;15.67;100.00
32324;BME280;25666;44.350;9.222;2022-12-26T17:15:54;102615.19;;;15.68;100.00
32324;BME280;25666;44.350;9.222;2022-12-26T17:18:44;102610.41;;;15.68;100.00
32324;BME280;25666;44.350;9.222;2022-12-26T17:21:27;102622.50;;;15.60;100.00
32324;BME280;25666;44.350;9.222;2022-12-26T17:24:11;102620.19;;;15.62;100.00
32324;BME280;25666;44.350;9.222;2022-12-26T17:26:40;102618.69;;;15.65;100.00
32324;BME280;25666;44.350;9.222;2022-12-26T17:32:05;102627.59;;;15.67;100.00
32324;BME280;25666;44.350;9.222;2022-12-26T17:34:31;102619.81;;;15.72;100.00
32324;BME280;25666;44.350;9.222;2022-12-26T17:37:02;102624.75;;;15.75;100.00
32324;BME280;25666;44.350;9.222;2022-12-26T17:39:28;102620.13;;;15.71;100.00
32324;BME280;25666;44.350;9.222;2022-12-26T17:41:56;102622.63;;;15.72;100.00
32324;BME280;25666;44.350;9.222;2022-12-26T17:44:41;102621.13;;;15.75;100.00
32324;BME280;25666;44.350;9.222;2022-12-26T17:47:24;102610.22;;;15.73;100.00